sensor_id;sensor_type;location;lat;lon;timestamp;pressure;altitude;pressure_sealevel;temperature;humidity
24013;BME280;12220;50.194;18.948;2023-05-01T00:01:14;102444.31;;;5.99;55.69
24013;BME280;12220;50.194;18.948;2023-05-01T00:03:25;102439.76;;;5.99;55.65
24013;BME280;12220;50.194;18.948;2023-05-01T00:05:27;102440.65;;;6.00;55.63
24013;BME280;12220;50.194;18.948;2023-05-01T00:07:29;102440.65;;;6.00;55.68
24013;BME280;12220;50.194;18.948;2023-05-01T00:09:31;102436.12;;;6.00;55.71
24013;BME280;12220;50.194;18.948;2023-05-01T00:11:43;102429.77;;;6.00;55.72
24013;BME280;12220;50.194;18.948;2023-05-01T00:13:45;102431.57;;;6.01;55.73
24013;BME280;12220;50.194;18.948;2023-05-01T00:15:48;102422.52;;;6.00;55.51
24013;BME280;12220;50.194;18.948;2023-05-01T00:17:50;102426.97;;;6.03;55.82
24013;BME280;12220;50.194;18.948;2023-05-01T00:19:55;102428.81;;;6.02;55.72
24013;BME280;12220;50.194;18.948;2023-05-01T00:21:56;102432.52;;;5.98;55.60
24013;BME280;12220;50.194;18.948;2023-05-01T00:23:58;102436.31;;;5.89;55.57
24013;BME280;12220;50.194;18.948;2023-05-01T00:25:59;102436.48;;;5.83;55.43
24013;BME280;12220;50.194;18.948;2023-05-01T00:28:10;102432.03;;;5.79;55.68
24013;BME280;12220;50.194;18.948;2023-05-01T00:30:11;102432.99;;;5.76;55.70
24013;BME280;12220;50.194;18.948;2023-05-01T00:32:13;102426.71;;;5.74;55.68
24013;BME280;12220;50.194;18.948;2023-05-01T00:34:15;102429.51;;;5.71;55.65
24013;BME280;12220;50.194;18.948;2023-05-01T00:36:25;102430.49;;;5.67;55.61
24013;BME280;12220;50.194;18.948;2023-05-01T00:38:26;102432.45;;;5.61;55.73
24013;BME280;12220;50.194;18.948;2023-05-01T00:40:28;102427.26;;;5.50;55.89
24013;BME280;12220;50.194;18.948;2023-05-01T00:42:33;102428.39;;;5.39;56.01
24013;BME280;12220;50.194;18.948;2023-05-01T00:44:40;102434.02;;;5.30;56.11
24013;BME280;12220;50.194;18.948;2023-05-01T00:46:41;102433.25;;;5.23;56.34
24013;BME280;12220;50.194;18.948;2023-05-01T00:48:44;102436.91;;;5.21;56.50
24013;BME280;12220;50.194;18.948;2023-05-01T00:50:46;102433.31;;;5.20;56.60
24013;BME280;12220;50.194;18.948;2023-05-01T00:52:55;102432.36;;;5.23;56.63
24013;BME280;12220;50.194;18.948;2023-05-01T00:54:57;102431.41;;;5.24;56.69
24013;BME280;12220;50.194;18.948;2023-05-01T00:56:59;102433.18;;;5.27;56.76
24013;BME280;12220;50.194;18.948;2023-05-01T00:59:00;102430.40;;;5.30;56.81
24013;BME280;12220;50.194;18.948;2023-05-01T01:01:11;102438.46;;;5.33;56.80
24013;BME280;12220;50.194;18.948;2023-05-01T01:03:13;102433.92;;;5.35;56.85
24013;BME280;12220;50.194;18.948;2023-05-01T01:05:14;102436.57;;;5.38;56.85
24013;BME280;12220;50.194;18.948;2023-05-01T01:07:23;102430.17;;;5.40;56.84
24013;BME280;12220;50.194;18.948;2023-05-01T01:11:56;102440.06;;;5.45;56.84
24013;BME280;12220;50.194;18.948;2023-05-01T01:14:15;102440.95;;;5.45;56.80
24013;BME280;12220;50.194;18.948;2023-05-01T01:27:47;102429.27;;;5.40;56.92
24013;BME280;12220;50.194;18.948;2023-05-01T01:30:03;102420.30;;;5.36;56.93
24013;BME280;12220;50.194;18.948;2023-05-01T01:41:32;102406.97;;;5.24;57.10
24013;BME280;12220;50.194;18.948;2023-05-01T01:43:39;102405.16;;;5.24;57.15
24013;BME280;12220;50.194;18.948;2023-05-01T01:45:46;102399.77;;;5.23;57.16
24013;BME280;12220;50.194;18.948;2023-05-01T01:47:48;102396.16;;;5.21;57.16
24013;BME280;12220;50.194;18.948;2023-05-01T01:49:53;102398.92;;;5.19;57.18
24013;BME280;12220;50.194;18.948;2023-05-01T01:51:55;102390.84;;;5.16;57.18
24013;BME280;12220;50.194;18.948;2023-05-01T01:53:59;102389.99;;;5.14;57.20
24013;BME280;12220;50.194;18.948;2023-05-01T01:56:06;102394.54;;;5.12;57.17
24013;BME280;12220;50.194;18.948;2023-05-01T01:58:10;102395.53;;;5.08;57.09
24013;BME280;12220;50.194;18.948;2023-05-01T02:00:12;102397.50;;;5.01;57.03
24013;BME280;12220;50.194;18.948;2023-05-01T02:02:18;102390.46;;;4.91;57.03
24013;BME280;12220;50.194;18.948;2023-05-01T02:04:21;102391.58;;;4.81;57.07
24013;BME280;12220;50.194;18.948;2023-05-01T02:06:24;102385.42;;;4.71;57.05
24013;BME280;12220;50.194;18.948;2023-05-01T02:08:29;102382.02;;;4.60;57.12
24013;BME280;12220;50.194;18.948;2023-05-01T02:10:32;102389.44;;;4.48;57.28
24013;BME280;12220;50.194;18.948;2023-05-01T02:12:36;102386.02;;;4.39;57.51
24013;BME280;12220;50.194;18.948;2023-05-01T02:14:38;102381.60;;;4.33;57.70
24013;BME280;12220;50.194;18.948;2023-05-01T02:16:41;102378.95;;;4.30;57.88
24013;BME280;12220;50.194;18.948;2023-05-01T02:18:45;102379.84;;;4.30;58.03
24013;BME280;12220;50.194;18.948;2023-05-01T02:20:47;102378.92;;;4.31;58.08
24013;BME280;12220;50.194;18.948;2023-05-01T02:22:52;102370.76;;;4.33;58.05
24013;BME280;12220;50.194;18.948;2023-05-01T02:24:55;102373.47;;;4.33;58.04
24013;BME280;12220;50.194;18.948;2023-05-01T02:27:02;102368.11;;;4.30;58.04
24013;BME280;12220;50.194;18.948;2023-05-01T02:29:06;102375.34;;;4.28;58.02
24013;BME280;12220;50.194;18.948;2023-05-01T02:31:08;102369.16;;;4.21;57.95
24013;BME280;12220;50.194;18.948;2023-05-01T02:33:10;102368.32;;;4.16;57.97
24013;BME280;12220;50.194;18.948;2023-05-01T02:35:12;102370.27;;;4.08;57.98
24013;BME280;12220;50.194;18.948;2023-05-01T02:37:14;102362.29;;;3.98;58.08
24013;BME280;12220;50.194;18.948;2023-05-01T02:39:22;102369.67;;;3.89;58.15
24013;BME280;12220;50.194;18.948;2023-05-01T02:41:24;102372.55;;;3.79;58.32
24013;BME280;12220;50.194;18.948;2023-05-01T02:43:27;102366.33;;;3.71;58.49
24013;BME280;12220;50.194;18.948;2023-05-01T02:45:32;102376.36;;;3.66;58.71
24013;BME280;12220;50.194;18.948;2023-05-01T02:47:38;102204.98;;;2.33;58.79
24013;BME280;12220;50.194;18.948;2023-05-01T02:49:43;102363.80;;;3.60;59.06
24013;BME280;12220;50.194;18.948;2023-05-01T02:51:48;102365.58;;;3.63;59.22
24013;BME280;12220;50.194;18.948;2023-05-01T02:53:50;102362.77;;;3.69;59.31
24013;BME280;12220;50.194;18.948;2023-05-01T02:55:52;102361.83;;;3.72;59.26
24013;BME280;12220;50.194;18.948;2023-05-01T02:57:57;102364.49;;;3.75;59.28
24013;BME280;12220;50.194;18.948;2023-05-01T02:59:59;102361.76;;;3.76;59.32
24013;BME280;12220;50.194;18.948;2023-05-01T03:02:00;102361.70;;;3.79;59.33
24013;BME280;12220;50.194;18.948;2023-05-01T03:04:10;102368.92;;;3.80;59.27
24013;BME280;12220;50.194;18.948;2023-05-01T03:06:12;102368.90;;;3.82;59.29
24013;BME280;12220;50.194;18.948;2023-05-01T03:08:16;102358.88;;;3.86;59.31
24013;BME280;12220;50.194;18.948;2023-05-01T03:10:18;102371.47;;;3.90;59.30
24013;BME280;12220;50.194;18.948;2023-05-01T03:12:22;102366.95;;;3.92;59.24
24013;BME280;12220;50.194;18.948;2023-05-01T03:14:24;102366.02;;;3.91;59.20
24013;BME280;12220;50.194;18.948;2023-05-01T03:16:30;102376.87;;;3.91;59.16
24013;BME280;12220;50.194;18.948;2023-05-01T03:18:31;102374.18;;;3.90;59.09
24013;BME280;12220;50.194;18.948;2023-05-01T03:20:38;102372.44;;;3.86;59.01
24013;BME280;12220;50.194;18.948;2023-05-01T03:22:39;102363.50;;;3.80;59.04
24013;BME280;12220;50.194;18.948;2023-05-01T03:24:40;102369.91;;;3.75;59.16
24013;BME280;12220;50.194;18.948;2023-05-01T03:26:42;102364.54;;;3.72;59.34
24013;BME280;12220;50.194;18.948;2023-05-01T03:28:53;102362.74;;;3.71;59.48
24013;BME280;12220;50.194;18.948;2023-05-01T03:30:54;102360.92;;;3.71;59.58
24013;BME280;12220;50.194;18.948;2023-05-01T03:32:56;102359.09;;;3.73;59.62
24013;BME280;12220;50.194;18.948;2023-05-01T03:34:57;102360.89;;;3.73;59.55
24013;BME280;12220;50.194;18.948;2023-05-01T03:37:08;102359.13;;;3.72;59.47
24013;BME280;12220;50.194;18.948;2023-05-01T03:39:09;102363.65;;;3.70;59.54
24013;BME280;12220;50.194;18.948;2023-05-01T03:41:10;102364.60;;;3.69;59.68
24013;BME280;12220;50.194;18.948;2023-05-01T03:43:12;102366.33;;;3.71;59.82
24013;BME280;12220;50.194;18.948;2023-05-01T03:45:23;102358.20;;;3.71;59.84
24013;BME280;12220;50.194;18.948;2023-05-01T03:47:24;102362.74;;;3.71;59.81
24013;BME280;12220;50.194;18.948;2023-05-01T03:49:25;102363.63;;;3.71;59.78
24013;BME280;12220;50.194;18.948;2023-05-01T03:51:28;102359.15;;;3.70;59.82
24013;BME280;12220;50.194;18.948;2023-05-01T03:53:38;102359.15;;;3.70;59.89
24013;BME280;12220;50.194;18.948;2023-05-01T03:55:42;102358.20;;;3.71;59.97
24013;BME280;12220;50.194;18.948;2023-05-01T03:57:44;102352.80;;;3.71;60.01
24013;BME280;12220;50.194;18.948;2023-05-01T03:59:47;102343.75;;;3.72;60.06
24013;BME280;12220;50.194;18.948;2023-05-01T04:01:56;102343.70;;;3.75;60.08
24013;BME280;12220;50.194;18.948;2023-05-01T04:04:00;102344.59;;;3.77;60.16
24013;BME280;12220;50.194;18.948;2023-05-01T04:06:02;102349.04;;;3.80;60.22
24013;BME280;12220;50.194;18.948;2023-05-01T04:08:04;102344.51;;;3.82;60.28
24013;BME280;12220;50.194;18.948;2023-05-01T04:10:09;102336.31;;;3.85;60.25
24013;BME280;12220;50.194;18.948;2023-05-01T04:12:11;102335.44;;;3.84;60.16
24013;BME280;12220;50.194;18.948;2023-05-01T04:14:13;102343.52;;;3.88;60.16
24013;BME280;12220;50.194;18.948;2023-05-01T04:16:14;102345.33;;;3.86;60.07
24013;BME280;12220;50.194;18.948;2023-05-01T04:18:23;102338.18;;;3.83;59.93
24013;BME280;12220;50.194;18.948;2023-05-01T04:20:26;102339.14;;;3.79;59.95
24013;BME280;12220;50.194;18.948;2023-05-01T04:22:27;102333.80;;;3.73;60.04
24013;BME280;12220;50.194;18.948;2023-05-01T04:24:32;102327.55;;;3.69;60.17
24013;BME280;12220;50.194;18.948;2023-05-01T04:26:38;102333.02;;;3.66;60.25
24013;BME280;12220;50.194;18.948;2023-05-01T04:28:42;102346.59;;;3.64;60.35
24013;BME280;12220;50.194;18.948;2023-05-01T04:30:44;102336.66;;;3.63;60.43
24013;BME280;12220;50.194;18.948;2023-05-01T04:32:46;102333.04;;;3.64;60.54
24013;BME280;12220;50.194;18.948;2023-05-01T04:34:53;102330.34;;;3.64;60.65
24013;BME280;12220;50.194;18.948;2023-05-01T04:36:55;102334.81;;;3.67;60.80
24013;BME280;12220;50.194;18.948;2023-05-01T04:38:57;102330.23;;;3.71;60.92
24013;BME280;12220;50.194;18.948;2023-05-01T04:40:58;102340.08;;;3.76;60.93
24013;BME280;12220;50.194;18.948;2023-05-01T04:43:09;102334.63;;;3.78;60.84
24013;BME280;12220;50.194;18.948;2023-05-01T04:45:10;102336.41;;;3.80;60.83
24013;BME280;12220;50.194;18.948;2023-05-01T04:47:12;102339.11;;;3.80;60.88
24013;BME280;12220;50.194;18.948;2023-05-01T04:49:13;102338.16;;;3.81;60.97
24013;BME280;12220;50.194;18.948;2023-05-01T04:51:24;102338.16;;;3.81;61.03
24013;BME280;12220;50.194;18.948;2023-05-01T04:53:25;102342.70;;;3.81;61.13
24013;BME280;12220;50.194;18.948;2023-05-01T04:55:26;102344.48;;;3.83;61.27
24013;BME280;12220;50.194;18.948;2023-05-01T04:57:28;102342.60;;;3.87;61.36
24013;BME280;12220;50.194;18.948;2023-05-01T04:59:39;102336.21;;;3.91;61.37
24013;BME280;12220;50.194;18.948;2023-05-01T05:01:40;102347.88;;;3.96;61.45
24013;BME280;12220;50.194;18.948;2023-05-01T05:03:41;102339.68;;;4.01;61.54
24013;BME280;12220;50.194;18.948;2023-05-01T05:05:43;102348.60;;;4.06;61.70
24013;BME280;12220;50.194;18.948;2023-05-01T05:07:54;102346.69;;;4.13;61.81
24013;BME280;12220;50.194;18.948;2023-05-01T05:09:55;102343.86;;;4.19;61.91
24013;BME280;12220;50.194;18.948;2023-05-01T05:11:57;102346.43;;;4.28;61.99
24013;BME280;12220;50.194;18.948;2023-05-01T05:13:58;102341.75;;;4.36;62.03
24013;BME280;12220;50.194;18.948;2023-05-01T05:16:09;102345.22;;;4.45;62.04
24013;BME280;12220;50.194;18.948;2023-05-01T05:18:11;102346.84;;;4.55;62.11
24013;BME280;12220;50.194;18.948;2023-05-01T05:20:12;102337.52;;;4.68;62.32
24013;BME280;12220;50.194;18.948;2023-05-01T05:22:15;102334.58;;;4.81;62.33
24013;BME280;12220;50.194;18.948;2023-05-01T05:24:24;102328.87;;;4.93;62.16
24013;BME280;12220;50.194;18.948;2023-05-01T05:26:26;102328.70;;;5.01;62.17
24013;BME280;12220;50.194;18.948;2023-05-01T05:28:30;102330.31;;;5.11;62.21
24013;BME280;12220;50.194;18.948;2023-05-01T05:30:31;102325.59;;;5.19;62.25
24013;BME280;12220;50.194;18.948;2023-05-01T05:32:39;102323.61;;;5.28;62.25
24013;BME280;12220;50.194;18.948;2023-05-01T05:34:41;102326.98;;;5.39;62.41
24013;BME280;12220;50.194;18.948;2023-05-01T05:36:42;102333.91;;;5.52;62.54
24013;BME280;12220;50.194;18.948;2023-05-01T05:38:44;102329.04;;;5.67;62.72
24013;BME280;12220;50.194;18.948;2023-05-01T05:40:54;102325.94;;;5.82;62.65
24013;BME280;12220;50.194;18.948;2023-05-01T05:42:56;102352.77;;;5.98;62.65
24013;BME280;12220;50.194;18.948;2023-05-01T05:44:57;102320.73;;;6.10;62.61
24013;BME280;12220;50.194;18.948;2023-05-01T05:47:04;102321.22;;;6.26;62.40
24013;BME280;12220;50.194;18.948;2023-05-01T05:49:09;102324.46;;;6.41;62.33
24013;BME280;12220;50.194;18.948;2023-05-01T05:51:11;102320.50;;;6.53;62.19
24013;BME280;12220;50.194;18.948;2023-05-01T05:53:12;102319.17;;;6.68;62.01
24013;BME280;12220;50.194;18.948;2023-05-01T05:55:14;102312.43;;;6.81;61.72
24013;BME280;12220;50.194;18.948;2023-05-01T05:57:24;102323.81;;;6.95;61.44
24013;BME280;12220;50.194;18.948;2023-05-01T05:59:26;102318.94;;;7.07;61.08
24013;BME280;12220;50.194;18.948;2023-05-01T06:01:28;102319.52;;;7.18;60.77
24013;BME280;12220;50.194;18.948;2023-05-01T06:03:29;102311.93;;;7.28;60.48
24013;BME280;12220;50.194;18.948;2023-05-01T06:05:39;102309.77;;;7.39;60.23
24013;BME280;12220;50.194;18.948;2023-05-01T06:07:41;102309.50;;;7.47;60.10
24013;BME280;12220;50.194;18.948;2023-05-01T06:09:43;102311.91;;;7.58;59.72
24013;BME280;12220;50.194;18.948;2023-05-01T06:11:44;102312.46;;;7.69;59.53
24013;BME280;12220;50.194;18.948;2023-05-01T06:13:54;102311.93;;;7.84;59.09
24013;BME280;12220;50.194;18.948;2023-05-01T06:15:57;102315.02;;;8.00;58.66
24013;BME280;12220;50.194;18.948;2023-05-01T06:17:59;102304.48;;;8.16;58.33
24013;BME280;12220;50.194;18.948;2023-05-01T06:20:00;102310.29;;;8.32;57.88
24013;BME280;12220;50.194;18.948;2023-05-01T06:22:09;102311.54;;;8.49;57.69
24013;BME280;12220;50.194;18.948;2023-05-01T06:24:11;102311.99;;;8.62;57.41
24013;BME280;12220;50.194;18.948;2023-05-01T06:26:13;102316.10;;;8.73;57.26
24013;BME280;12220;50.194;18.948;2023-05-01T06:28:14;102313.99;;;8.82;57.11
24013;BME280;12220;50.194;18.948;2023-05-01T06:30:24;102314.60;;;8.90;56.69
24013;BME280;12220;50.194;18.948;2023-05-01T06:32:28;102316.03;;;9.00;56.29
24013;BME280;12220;50.194;18.948;2023-05-01T06:34:29;102315.54;;;9.13;55.67
24013;BME280;12220;50.194;18.948;2023-05-01T06:36:31;102318.57;;;9.29;55.43
24013;BME280;12220;50.194;18.948;2023-05-01T06:38:39;102311.59;;;9.43;55.25
24013;BME280;12220;50.194;18.948;2023-05-01T06:40:48;102302.90;;;9.56;54.98
24013;BME280;12220;50.194;18.948;2023-05-01T06:42:49;102307.85;;;9.68;55.05
24013;BME280;12220;50.194;18.948;2023-05-01T06:44:51;102311.17;;;9.76;54.61
24013;BME280;12220;50.194;18.948;2023-05-01T06:46:54;102312.55;;;9.87;53.93
24013;BME280;12220;50.194;18.948;2023-05-01T06:48:56;102304.80;;;9.98;54.05
24013;BME280;12220;50.194;18.948;2023-05-01T06:50:58;102307.13;;;10.07;53.38
24013;BME280;12220;50.194;18.948;2023-05-01T06:52:59;102297.45;;;10.21;53.18
24013;BME280;12220;50.194;18.948;2023-05-01T06:55:09;102297.84;;;10.32;52.73
24013;BME280;12220;50.194;18.948;2023-05-01T06:57:15;102297.34;;;10.44;52.31
24013;BME280;12220;50.194;18.948;2023-05-01T06:59:16;102290.35;;;10.58;52.03
24013;BME280;12220;50.194;18.948;2023-05-01T07:01:18;102292.66;;;10.67;51.00
24013;BME280;12220;50.194;18.948;2023-05-01T07:03:24;102310.45;;;10.77;50.80
24013;BME280;12220;50.194;18.948;2023-05-01T07:05:27;102289.95;;;10.86;50.23
24013;BME280;12220;50.194;18.948;2023-05-01T07:07:29;102290.49;;;10.94;50.07
24013;BME280;12220;50.194;18.948;2023-05-01T07:09:31;102298.16;;;11.07;49.65
24013;BME280;12220;50.194;18.948;2023-05-01T07:11:39;102292.15;;;11.18;49.07
24013;BME280;12220;50.194;18.948;2023-05-01T07:13:42;102296.23;;;11.28;48.51
24013;BME280;12220;50.194;18.948;2023-05-01T07:15:43;102286.59;;;11.38;48.48
24013;BME280;12220;50.194;18.948;2023-05-01T07:17:45;102287.91;;;11.48;48.15
24013;BME280;12220;50.194;18.948;2023-05-01T07:19:54;102295.74;;;11.56;47.41
24013;BME280;12220;50.194;18.948;2023-05-01T07:21:56;102286.13;;;11.66;47.43
24013;BME280;12220;50.194;18.948;2023-05-01T07:23:57;102286.61;;;11.75;46.58
24013;BME280;12220;50.194;18.948;2023-05-01T07:26:01;102289.78;;;11.84;46.69
24013;BME280;12220;50.194;18.948;2023-05-01T07:28:09;102287.55;;;11.93;46.10
24013;BME280;12220;50.194;18.948;2023-05-01T07:30:11;102297.28;;;12.00;44.99
24013;BME280;12220;50.194;18.948;2023-05-01T07:32:12;102287.68;;;12.09;45.08
24013;BME280;12220;50.194;18.948;2023-05-01T07:34:14;102283.48;;;12.19;45.31
24013;BME280;12220;50.194;18.948;2023-05-01T07:36:24;102287.44;;;12.31;45.21
24013;BME280;12220;50.194;18.948;2023-05-01T07:38:29;102273.45;;;12.35;44.03
24013;BME280;12220;50.194;18.948;2023-05-01T07:40:33;102283.06;;;12.44;43.74
24013;BME280;12220;50.194;18.948;2023-05-01T07:42:35;102272.30;;;12.57;43.88
24013;BME280;12220;50.194;18.948;2023-05-01T07:44:39;102275.36;;;12.68;44.20
24013;BME280;12220;50.194;18.948;2023-05-01T07:46:43;102266.60;;;12.78;43.98
24013;BME280;12220;50.194;18.948;2023-05-01T07:48:45;102293.48;;;12.88;43.01
24013;BME280;12220;50.194;18.948;2023-05-01T07:50:49;102273.92;;;12.95;42.29
24013;BME280;12220;50.194;18.948;2023-05-01T07:52:54;102269.59;;;13.06;42.59
24013;BME280;12220;50.194;18.948;2023-05-01T07:54:56;102270.94;;;13.15;42.47
24013;BME280;12220;50.194;18.948;2023-05-01T07:56:57;102300.66;;;13.24;42.41
24013;BME280;12220;50.194;18.948;2023-05-01T07:58:59;102257.05;;;13.34;42.42
24013;BME280;12220;50.194;18.948;2023-05-01T08:01:09;102266.54;;;13.45;42.35
24013;BME280;12220;50.194;18.948;2023-05-01T08:03:11;102263.24;;;13.54;41.96
24013;BME280;12220;50.194;18.948;2023-05-01T08:05:15;102259.25;;;13.59;41.07
24013;BME280;12220;50.194;18.948;2023-05-01T08:07:17;102260.38;;;13.71;41.82
24013;BME280;12220;50.194;18.948;2023-05-01T08:09:24;102250.69;;;13.80;41.56
24013;BME280;12220;50.194;18.948;2023-05-01T08:11:26;102262.92;;;13.90;41.76
24013;BME280;12220;50.194;18.948;2023-05-01T08:13:29;102262.20;;;14.03;41.91
24013;BME280;12220;50.194;18.948;2023-05-01T08:15:31;102258.68;;;14.15;41.80
24013;BME280;12220;50.194;18.948;2023-05-01T08:17:41;102250.55;;;14.28;41.90
24013;BME280;12220;50.194;18.948;2023-05-01T08:19:42;102248.13;;;14.38;41.63
24013;BME280;12220;50.194;18.948;2023-05-01T08:21:45;102258.55;;;14.47;41.26
24013;BME280;12220;50.194;18.948;2023-05-01T08:23:46;102254.25;;;14.57;41.22
24013;BME280;12220;50.194;18.948;2023-05-01T08:25:54;102286.60;;;14.70;41.40
24013;BME280;12220;50.194;18.948;2023-05-01T08:27:56;102258.33;;;14.80;41.18
24013;BME280;12220;50.194;18.948;2023-05-01T08:29:57;102254.00;;;14.91;41.04
24013;BME280;12220;50.194;18.948;2023-05-01T08:32:01;102244.23;;;14.99;40.22
24013;BME280;12220;50.194;18.948;2023-05-01T08:34:09;102243.66;;;15.09;40.07
24013;BME280;12220;50.194;18.948;2023-05-01T08:36:13;102238.30;;;15.20;39.90
24013;BME280;12220;50.194;18.948;2023-05-01T08:38:14;102245.08;;;15.29;39.50
24013;BME280;12220;50.194;18.948;2023-05-01T08:40:16;102248.13;;;15.39;39.57
24013;BME280;12220;50.194;18.948;2023-05-01T08:42:24;102242.18;;;15.45;38.11
24013;BME280;12220;50.194;18.948;2023-05-01T08:44:27;102244.45;;;15.53;38.44
24013;BME280;12220;50.194;18.948;2023-05-01T08:48:44;102241.76;;;15.65;38.46
24013;BME280;12220;50.194;18.948;2023-05-01T08:50:47;102236.46;;;15.75;38.43
24013;BME280;12220;50.194;18.948;2023-05-01T08:53:01;102226.48;;;15.87;38.93
24013;BME280;12220;50.194;18.948;2023-05-01T08:55:11;102234.16;;;15.96;38.55
24013;BME280;12220;50.194;18.948;2023-05-01T08:57:14;102230.63;;;16.07;38.45
24013;BME280;12220;50.194;18.948;2023-05-01T08:59:17;102224.48;;;16.16;37.81
24013;BME280;12220;50.194;18.948;2023-05-01T09:01:21;102225.48;;;16.28;37.71
24013;BME280;12220;50.194;18.948;2023-05-01T09:03:23;102216.42;;;16.39;37.43
24013;BME280;12220;50.194;18.948;2023-05-01T09:05:26;102227.71;;;16.49;37.43
24013;BME280;12220;50.194;18.948;2023-05-01T09:07:28;102226.38;;;16.54;36.97
24013;BME280;12220;50.194;18.948;2023-05-01T09:09:33;102218.40;;;16.63;36.69
24013;BME280;12220;50.194;18.948;2023-05-01T09:11:34;102212.10;;;16.73;37.23
24013;BME280;12220;50.194;18.948;2023-05-01T09:13:36;102212.20;;;16.85;36.60
24013;BME280;12220;50.194;18.948;2023-05-01T09:15:38;102215.87;;;16.98;36.54
24013;BME280;12220;50.194;18.948;2023-05-01T09:17:47;102190.16;;;17.09;36.33
24013;BME280;12220;50.194;18.948;2023-05-01T09:19:52;102201.90;;;17.13;35.43
24013;BME280;12220;50.194;18.948;2023-05-01T09:21:53;102199.52;;;17.19;35.39
24013;BME280;12220;50.194;18.948;2023-05-01T09:23:55;102194.66;;;17.23;34.20
24013;BME280;12220;50.194;18.948;2023-05-01T09:26:08;102197.20;;;17.26;34.43
24013;BME280;12220;50.194;18.948;2023-05-01T09:28:10;102194.19;;;17.29;33.10
24013;BME280;12220;50.194;18.948;2023-05-01T09:32:25;102177.41;;;17.43;34.03
24013;BME280;12220;50.194;18.948;2023-05-01T09:34:30;102173.29;;;17.49;34.07
24013;BME280;12220;50.194;18.948;2023-05-01T09:36:39;102173.67;;;17.56;33.95
24013;BME280;12220;50.194;18.948;2023-05-01T09:38:45;102163.77;;;17.65;33.30
24013;BME280;12220;50.194;18.948;2023-05-01T09:40:52;102177.80;;;17.74;33.57
24013;BME280;12220;50.194;18.948;2023-05-01T09:42:54;102176.33;;;17.82;33.00
24013;BME280;12220;50.194;18.948;2023-05-01T09:44:58;102183.94;;;17.91;32.96
24013;BME280;12220;50.194;18.948;2023-05-01T09:47:01;102179.56;;;18.00;32.84
24013;BME280;12220;50.194;18.948;2023-05-01T09:49:03;102178.20;;;18.05;31.51
24013;BME280;12220;50.194;18.948;2023-05-01T09:53:18;102176.08;;;18.09;30.34
24013;BME280;12220;50.194;18.948;2023-05-01T09:55:30;102179.34;;;18.14;31.39
24013;BME280;12220;50.194;18.948;2023-05-01T09:57:34;102179.22;;;18.16;30.64
24013;BME280;12220;50.194;18.948;2023-05-01T09:59:42;102169.66;;;18.20;30.45
24013;BME280;12220;50.194;18.948;2023-05-01T10:01:44;102176.36;;;18.28;30.71
24013;BME280;12220;50.194;18.948;2023-05-01T10:03:54;102171.84;;;18.39;30.97
24013;BME280;12220;50.194;18.948;2023-05-01T10:06:08;102164.05;;;18.44;30.56
24013;BME280;12220;50.194;18.948;2023-05-01T10:08:09;102171.98;;;18.49;30.39
24013;BME280;12220;50.194;18.948;2023-05-01T10:10:18;102164.93;;;18.56;30.30
24013;BME280;12220;50.194;18.948;2023-05-01T10:12:27;102166.81;;;18.67;30.87
24013;BME280;12220;50.194;18.948;2023-05-01T10:14:29;102155.84;;;18.76;29.64
24013;BME280;12220;50.194;18.948;2023-05-01T10:16:43;102157.37;;;18.80;29.86
24013;BME280;12220;50.194;18.948;2023-05-01T10:18:45;102153.84;;;18.90;30.61
24013;BME280;12220;50.194;18.948;2023-05-01T10:20:47;102157.62;;;19.00;31.03
24013;BME280;12220;50.194;18.948;2023-05-01T10:22:49;102162.68;;;19.06;29.99
24013;BME280;12220;50.194;18.948;2023-05-01T10:24:58;102150.27;;;19.10;30.66
24013;BME280;12220;50.194;18.948;2023-05-01T10:27:00;102145.49;;;19.12;30.82
24013;BME280;12220;50.194;18.948;2023-05-01T10:29:06;102142.33;;;19.17;30.91
24013;BME280;12220;50.194;18.948;2023-05-01T10:31:09;102146.22;;;19.26;30.95
24013;BME280;12220;50.194;18.948;2023-05-01T10:33:12;102148.96;;;19.37;31.25
24013;BME280;12220;50.194;18.948;2023-05-01T10:35:19;102139.43;;;19.51;31.53
24013;BME280;12220;50.194;18.948;2023-05-01T10:37:33;102132.97;;;19.62;31.48
24013;BME280;12220;50.194;18.948;2023-05-01T10:39:38;102132.91;;;19.73;31.48
24013;BME280;12220;50.194;18.948;2023-05-01T10:53:17;102111.65;;;20.05;29.50
24013;BME280;12220;50.194;18.948;2023-05-01T10:55:31;102112.13;;;20.10;29.32
24013;BME280;12220;50.194;18.948;2023-05-01T10:57:43;102118.02;;;20.16;30.07
24013;BME280;12220;50.194;18.948;2023-05-01T11:01:57;102122.22;;;20.32;30.22
24013;BME280;12220;50.194;18.948;2023-05-01T11:04:06;102113.45;;;20.36;30.39
24013;BME280;12220;50.194;18.948;2023-05-01T11:06:08;102113.16;;;20.40;29.76
24013;BME280;12220;50.194;18.948;2023-05-01T11:10:26;102108.80;;;20.47;30.75
24013;BME280;12220;50.194;18.948;2023-05-01T11:17:04;102087.61;;;20.55;30.08
24013;BME280;12220;50.194;18.948;2023-05-01T11:21:15;102085.45;;;20.59;30.44
24013;BME280;12220;50.194;18.948;2023-05-01T11:23:17;102082.96;;;20.66;30.89
24013;BME280;12220;50.194;18.948;2023-05-01T11:25:23;102083.17;;;20.74;31.27
24013;BME280;12220;50.194;18.948;2023-05-01T11:27:26;102077.36;;;20.87;31.42
24013;BME280;12220;50.194;18.948;2023-05-01T11:29:31;102076.49;;;20.96;31.01
24013;BME280;12220;50.194;18.948;2023-05-01T11:31:36;102067.40;;;21.04;31.00
24013;BME280;12220;50.194;18.948;2023-05-01T11:33:38;102056.72;;;21.09;30.78
24013;BME280;12220;50.194;18.948;2023-05-01T11:35:40;102054.66;;;21.01;30.35
24013;BME280;12220;50.194;18.948;2023-05-01T11:37:44;102050.55;;;20.96;29.71